createdAt,value
2023-02-07T00:01:37.901Z,34.00
2023-02-07T00:04:08.317Z,28.00
2023-02-07T00:06:39.031Z,32.25
2023-02-07T00:09:12.675Z,33.00
2023-02-07T00:11:43.235Z,30.00
2023-02-07T00:14:14.006Z,31.25
2023-02-07T00:16:44.876Z,30.50
2023-02-07T00:19:15.959Z,35.50
2023-02-07T00:21:46.574Z,32.25
2023-02-07T00:24:16.800Z,36.75
2023-02-07T00:26:48.205Z,30.75
2023-02-07T00:29:19.887Z,34.25
2023-02-07T00:31:53.709Z,19.75
2023-02-07T00:34:25.224Z,29.25
2023-02-07T00:36:55.505Z,37.00
2023-02-07T00:39:26.282Z,27.00
2023-02-07T00:41:56.620Z,26.75
2023-02-07T00:44:28.054Z,28.25
2023-02-07T00:46:59.170Z,28.50
2023-02-07T00:49:29.582Z,35.50
2023-02-07T00:52:00.312Z,31.25
2023-02-07T00:54:30.812Z,20.50
2023-02-07T00:57:01.481Z,35.75
2023-02-07T00:59:31.768Z,31.50
2023-02-07T01:02:02.225Z,23.75
2023-02-07T01:04:32.683Z,46.50
2023-02-07T01:07:03.149Z,29.75
2023-02-07T01:09:34.334Z,21.75
2023-02-07T01:12:05.624Z,36.25
2023-02-07T01:14:36.406Z,33.25
2023-02-07T01:17:07.397Z,25.50
2023-02-07T01:19:37.815Z,29.50
2023-02-07T01:22:09.057Z,41.50
2023-02-07T01:24:39.821Z,29.00
2023-02-07T01:27:11.589Z,46.75
2023-02-07T01:29:41.914Z,37.00
2023-02-07T01:32:12.333Z,35.75
2023-02-07T01:34:43.319Z,52.50
2023-02-07T01:37:13.787Z,40.00
2023-02-07T01:39:46.513Z,40.25
2023-02-07T01:42:18.151Z,46.00
2023-02-07T01:44:54.203Z,50.00
2023-02-07T01:47:25.573Z,42.75
2023-02-07T01:49:58.698Z,46.00
2023-02-07T01:55:24.084Z,35.25
2023-02-07T01:57:54.777Z,32.50
2023-02-07T02:00:25.516Z,31.00
2023-02-07T02:02:57.418Z,30.00
2023-02-07T02:05:30.487Z,29.00
2023-02-07T02:08:01.132Z,25.50
2023-02-07T02:11:08.084Z,36.50
2023-02-07T02:13:47.126Z,38.50
2023-02-07T02:16:29.587Z,44.75
2023-02-07T02:19:12.002Z,49.50
2023-02-07T02:25:01.352Z,27.25
2023-02-07T02:27:56.676Z,28.75
2023-02-07T02:30:50.217Z,27.75
2023-02-07T02:42:13.580Z,23.75
2023-02-07T02:44:49.403Z,26.00
2023-02-07T02:47:21.175Z,25.50
2023-02-07T02:49:52.440Z,38.00
2023-02-07T02:52:22.984Z,28.00
2023-02-07T02:54:54.656Z,31.00
2023-02-07T02:57:46.312Z,30.25
2023-02-07T03:00:46.898Z,52.25
2023-02-07T03:03:20.167Z,24.25
2023-02-07T03:06:14.763Z,31.25
2023-02-07T03:09:04.571Z,42.50
2023-02-07T03:11:38.592Z,32.75
2023-02-07T03:14:17.875Z,28.00
2023-02-07T03:20:09.838Z,30.25
2023-02-07T03:22:43.967Z,31.00
2023-02-07T03:25:16.472Z,33.25
2023-02-07T03:27:48.861Z,37.25
2023-02-07T03:30:23.016Z,35.50
2023-02-07T03:32:56.523Z,36.00
2023-02-07T03:35:47.894Z,38.75
2023-02-07T03:38:18.819Z,6.50
2023-02-07T03:40:55.173Z,29.00
2023-02-07T03:43:31.228Z,28.50
2023-02-07T03:46:01.821Z,31.00
2023-02-07T03:48:32.745Z,30.50
2023-02-07T03:51:03.023Z,31.00
2023-02-07T03:53:35.106Z,27.50
2023-02-07T03:56:06.490Z,35.00
2023-02-07T03:58:37.661Z,28.50
2023-02-07T04:01:08.646Z,37.50
2023-02-07T04:03:39.527Z,30.75
2023-02-07T04:06:09.914Z,38.00
2023-02-07T04:08:40.823Z,26.00
2023-02-07T04:11:11.375Z,38.50
2023-02-07T04:13:41.749Z,32.75
2023-02-07T04:16:12.576Z,32.50
2023-02-07T04:18:42.924Z,24.00
2023-02-07T04:21:13.217Z,37.00
2023-02-07T04:23:43.626Z,33.00
2023-02-07T04:26:14.114Z,29.75
2023-02-07T04:28:45.315Z,44.25
2023-02-07T04:31:15.595Z,31.25
2023-02-07T04:33:46.027Z,32.75
2023-02-07T04:36:16.411Z,34.75
2023-02-07T04:38:46.632Z,33.75
2023-02-07T04:41:18.163Z,31.00
2023-02-07T04:43:49.961Z,34.75
2023-02-07T04:46:20.329Z,35.50
2023-02-07T04:48:51.194Z,35.50
2023-02-07T04:51:21.810Z,34.00
2023-02-07T04:53:52.750Z,40.50
2023-02-07T04:56:23.847Z,37.00
2023-02-07T04:58:54.186Z,38.50
2023-02-07T05:01:25.421Z,45.25
2023-02-07T05:03:56.351Z,33.00
2023-02-07T05:06:27.168Z,34.75
2023-02-07T05:08:58.168Z,40.50
2023-02-07T05:11:28.908Z,27.00
2023-02-07T05:13:59.394Z,27.75
2023-02-07T05:16:29.843Z,33.25
2023-02-07T05:19:00.274Z,34.50
2023-02-07T05:21:30.746Z,34.75
2023-02-07T05:24:01.283Z,29.75
2023-02-07T05:26:32.311Z,36.50
2023-02-07T05:29:02.712Z,35.00
2023-02-07T05:31:33.849Z,38.25
2023-02-07T05:34:04.416Z,25.25
2023-02-07T05:36:35.303Z,17.75
2023-02-07T05:39:05.947Z,32.50
2023-02-07T05:41:36.544Z,30.25
2023-02-07T05:44:07.000Z,31.75
2023-02-07T05:46:37.816Z,33.75
2023-02-07T05:49:09.890Z,27.25
2023-02-07T05:51:40.385Z,44.00
2023-02-07T05:54:11.128Z,26.50
2023-02-07T05:56:41.889Z,41.75
2023-02-07T05:59:12.751Z,32.75
2023-02-07T06:01:43.626Z,24.25
2023-02-07T06:04:13.964Z,33.50
2023-02-07T06:06:44.494Z,30.75
2023-02-07T06:09:21.129Z,35.25
2023-02-07T06:11:51.480Z,36.50
2023-02-07T06:14:22.239Z,27.00
2023-02-07T06:16:52.833Z,36.50
2023-02-07T06:19:24.195Z,40.25
2023-02-07T06:21:54.791Z,29.25
2023-02-07T06:24:25.332Z,36.25
2023-02-07T06:26:56.451Z,33.50
2023-02-07T06:29:26.968Z,42.75
2023-02-07T06:31:59.176Z,39.50
2023-02-07T06:34:29.706Z,45.50
2023-02-07T06:37:00.557Z,41.50
2023-02-07T06:39:39.220Z,42.25
2023-02-07T06:42:09.834Z,47.50
2023-02-07T06:44:40.519Z,43.75
2023-02-07T06:47:11.377Z,45.00
2023-02-07T06:49:41.883Z,32.50
2023-02-07T06:52:12.645Z,45.75
2023-02-07T06:54:43.027Z,58.00
2023-02-07T06:57:14.951Z,56.50
2023-02-07T06:59:45.806Z,47.75
2023-02-07T07:02:19.731Z,37.25
2023-02-07T07:04:49.749Z,35.00
2023-02-07T07:07:20.215Z,41.00
2023-02-07T07:09:50.685Z,30.00
2023-02-07T07:12:21.292Z,25.50
2023-02-07T07:14:52.148Z,22.50
2023-02-07T07:17:22.912Z,19.00
2023-02-07T07:19:53.751Z,33.75
2023-02-07T07:22:24.437Z,25.25
2023-02-07T07:24:54.920Z,28.50
2023-02-07T07:27:26.564Z,29.75
2023-02-07T07:29:57.365Z,25.50
2023-02-07T07:32:34.035Z,25.25
2023-02-07T07:34:59.987Z,30.25
2023-02-07T07:37:31.070Z,35.75
2023-02-07T07:40:01.529Z,29.50
2023-02-07T07:42:32.607Z,25.00
2023-02-07T07:45:03.273Z,16.50
2023-02-07T07:47:34.044Z,24.00
2023-02-07T07:50:05.338Z,28.25
2023-02-07T07:52:35.691Z,17.25
2023-02-07T07:55:15.919Z,21.00
2023-02-07T07:58:00.955Z,16.75
2023-02-07T08:00:39.228Z,25.75
2023-02-07T08:03:12.978Z,27.00
2023-02-07T08:05:44.830Z,21.75
2023-02-07T08:08:18.365Z,33.50
2023-02-07T08:10:49.645Z,20.75
2023-02-07T08:13:20.267Z,84.75
2023-02-07T08:15:50.698Z,22.75
2023-02-07T08:18:21.269Z,56.50
2023-02-07T08:20:52.462Z,26.75
2023-02-07T08:23:23.102Z,27.25
2023-02-07T08:25:53.720Z,20.50
2023-02-07T08:28:25.060Z,33.25
2023-02-07T08:30:57.266Z,34.75
2023-02-07T08:33:30.349Z,28.75
2023-02-07T08:36:02.578Z,89.25
2023-02-07T08:38:33.803Z,28.00
2023-02-07T08:41:07.458Z,20.25
2023-02-07T08:43:38.095Z,13.75
2023-02-07T08:46:11.311Z,16.50
2023-02-07T08:48:42.268Z,27.50
2023-02-07T08:51:12.717Z,33.75
2023-02-07T08:53:43.228Z,27.75
2023-02-07T08:56:14.982Z,27.00
2023-02-07T08:58:49.245Z,30.00
2023-02-07T09:01:26.590Z,16.25
2023-02-07T09:03:57.853Z,24.00
2023-02-07T09:06:28.532Z,25.25
2023-02-07T09:09:03.856Z,18.75
2023-02-07T09:11:34.885Z,26.00
2023-02-07T09:14:07.712Z,19.75
2023-02-07T09:16:38.339Z,23.75
2023-02-07T09:19:09.048Z,26.25
2023-02-07T09:21:39.440Z,25.25
2023-02-07T09:24:13.119Z,22.75
2023-02-07T09:26:44.737Z,32.25
2023-02-07T09:29:16.056Z,25.50
2023-02-07T09:31:47.160Z,28.50
2023-02-07T09:34:18.360Z,23.25
2023-02-07T09:36:53.269Z,26.50
2023-02-07T09:39:23.820Z,30.25
2023-02-07T09:42:20.505Z,28.50
2023-02-07T09:47:49.075Z,25.75
2023-02-07T09:50:27.190Z,17.00
2023-02-07T09:53:00.623Z,20.00
2023-02-07T09:58:48.989Z,23.25
2023-02-07T10:01:34.510Z,21.00
2023-02-07T10:04:25.704Z,15.00
2023-02-07T10:09:43.346Z,22.75
2023-02-07T10:12:31.794Z,63.50
2023-02-07T10:15:24.945Z,43.25
2023-02-07T10:18:13.881Z,57.25
2023-02-07T10:21:02.760Z,68.75
2023-02-07T10:24:00.371Z,17.50
2023-02-07T10:26:54.737Z,22.00
2023-02-07T10:29:49.373Z,27.75
2023-02-07T10:32:22.838Z,14.25
2023-02-07T10:35:02.099Z,18.25
2023-02-07T10:37:35.827Z,23.75
2023-02-07T10:40:27.061Z,21.00
2023-02-07T10:43:03.518Z,20.50
2023-02-07T10:45:34.322Z,18.00
2023-02-07T10:48:07.900Z,12.00
2023-02-07T10:50:39.631Z,22.75
2023-02-07T10:53:10.512Z,22.50
2023-02-07T10:55:48.427Z,21.00
2023-02-07T10:58:27.834Z,29.25
2023-02-07T11:00:58.332Z,17.00
2023-02-07T11:03:29.078Z,21.00
2023-02-07T11:06:02.060Z,18.25
2023-02-07T11:08:36.981Z,22.25
2023-02-07T11:11:32.643Z,24.75
2023-02-07T11:14:05.677Z,22.75
2023-02-07T11:16:36.764Z,64.75
2023-02-07T11:19:08.266Z,81.00
2023-02-07T11:21:47.212Z,77.50
2023-02-07T11:24:30.840Z,43.25
2023-02-07T11:27:06.877Z,39.50
2023-02-07T11:29:46.106Z,37.00
2023-02-07T11:32:17.412Z,72.50
2023-02-07T11:34:56.363Z,80.50
2023-02-07T11:37:31.083Z,59.25
2023-02-07T11:40:25.169Z,19.50
2023-02-07T11:42:58.734Z,20.75
2023-02-07T11:45:31.336Z,15.50
2023-02-07T11:51:10.539Z,9.00
2023-02-07T11:53:43.744Z,15.75
2023-02-07T11:56:39.438Z,15.75
2023-02-07T11:59:19.216Z,16.50
2023-02-07T12:01:55.417Z,12.50
2023-02-07T12:04:37.666Z,12.00
2023-02-07T12:07:13.602Z,12.00
2023-02-07T12:09:50.964Z,14.75
2023-02-07T12:12:42.602Z,19.50
2023-02-07T12:15:37.272Z,19.25
2023-02-07T12:18:17.621Z,15.00
2023-02-07T12:20:51.106Z,15.50
2023-02-07T12:23:42.806Z,15.25
2023-02-07T12:29:13.975Z,17.25
2023-02-07T12:34:59.707Z,30.50
2023-02-07T12:37:46.391Z,16.25
2023-02-07T12:40:25.887Z,14.25
2023-02-07T12:43:16.859Z,12.75
2023-02-07T12:46:20.428Z,19.00
2023-02-07T12:49:08.304Z,23.50
2023-02-07T12:51:53.916Z,18.75
2023-02-07T12:57:58.285Z,20.25
2023-02-07T13:00:51.352Z,19.25
2023-02-07T13:03:58.246Z,17.00
2023-02-07T13:06:37.730Z,16.75
2023-02-07T13:09:30.062Z,25.50
2023-02-07T13:12:06.191Z,23.50
2023-02-07T13:14:54.699Z,22.25
2023-02-07T13:17:36.732Z,24.50
2023-02-07T13:20:28.203Z,28.75
2023-02-07T13:23:04.545Z,21.25
2023-02-07T13:25:38.711Z,22.50
2023-02-07T13:28:14.862Z,18.25
2023-02-07T13:30:48.258Z,25.25
2023-02-07T13:33:47.761Z,20.00
2023-02-07T13:36:21.262Z,24.00
2023-02-07T13:39:15.045Z,21.50
2023-02-07T13:42:09.610Z,22.75
2023-02-07T13:45:07.798Z,19.00
2023-02-07T13:51:27.245Z,26.75
2023-02-07T13:54:29.101Z,17.25
2023-02-07T13:57:04.008Z,25.25
2023-02-07T13:59:39.964Z,28.00
2023-02-07T14:02:42.439Z,25.00
2023-02-07T14:08:24.610Z,22.75
2023-02-07T14:11:00.553Z,20.00
2023-02-07T14:13:35.000Z,29.00
2023-02-07T14:16:11.897Z,20.25
2023-02-07T14:18:45.803Z,24.00
2023-02-07T14:21:25.190Z,22.00
2023-02-07T14:24:01.484Z,23.75
2023-02-07T14:29:32.980Z,22.25
2023-02-07T14:32:23.279Z,20.00
2023-02-07T14:35:08.947Z,43.25
2023-02-07T14:37:51.229Z,41.50
2023-02-07T14:40:24.676Z,57.75
2023-02-07T14:43:04.147Z,53.25
2023-02-07T14:45:38.345Z,65.75
2023-02-07T14:48:11.923Z,56.25
2023-02-07T14:50:48.162Z,54.50
2023-02-07T14:53:18.705Z,74.00
2023-02-07T14:55:55.000Z,69.00
2023-02-07T14:58:43.439Z,88.00
2023-02-07T15:01:17.050Z,90.50
2023-02-07T15:03:48.943Z,82.75
2023-02-07T15:06:31.985Z,73.25
2023-02-07T15:09:16.569Z,51.00
2023-02-07T15:11:54.015Z,48.00
2023-02-07T15:17:16.475Z,48.50
2023-02-07T15:19:47.646Z,55.00
2023-02-07T15:22:26.541Z,23.50
2023-02-07T15:24:58.860Z,27.50
2023-02-07T15:27:31.208Z,28.75
2023-02-07T15:30:05.340Z,25.50
2023-02-07T15:32:56.658Z,29.25
2023-02-07T15:35:30.915Z,25.25
2023-02-07T15:38:16.412Z,36.00
2023-02-07T15:43:55.166Z,16.50
2023-02-07T15:46:47.528Z,29.50
2023-02-07T15:53:11.090Z,25.25
2023-02-07T15:58:40.165Z,29.75
2023-02-07T16:01:28.403Z,21.25
2023-02-07T16:04:03.377Z,31.50
2023-02-07T16:06:54.170Z,24.50
2023-02-07T16:12:30.812Z,29.50
2023-02-07T16:15:04.774Z,71.00
2023-02-07T16:17:41.855Z,43.50
2023-02-07T16:20:19.941Z,22.50
2023-02-07T16:22:55.307Z,32.75
2023-02-07T16:25:39.089Z,22.50
2023-02-07T16:28:37.921Z,29.00
2023-02-07T16:31:20.643Z,26.75
2023-02-07T16:33:52.825Z,30.25
2023-02-07T16:37:01.428Z,25.00
2023-02-07T16:39:40.632Z,27.25
2023-02-07T16:42:14.692Z,34.50
2023-02-07T16:44:49.035Z,37.25
2023-02-07T16:50:53.435Z,30.75
2023-02-07T16:52:44.921Z,39.00
2023-02-07T16:55:17.295Z,33.75
2023-02-07T16:57:49.393Z,42.50
2023-02-07T17:00:31.881Z,37.00
2023-02-07T17:03:06.649Z,31.00
2023-02-07T17:05:37.833Z,35.00
2023-02-07T17:08:25.366Z,30.50
2023-02-07T17:11:01.823Z,27.25
2023-02-07T17:13:37.092Z,34.50
2023-02-07T17:16:10.454Z,13.50
2023-02-07T17:18:43.795Z,28.25
2023-02-07T17:21:14.833Z,34.25
2023-02-07T17:23:45.934Z,32.00
2023-02-07T17:26:28.478Z,35.50
2023-02-07T17:28:59.303Z,19.50
2023-02-07T17:31:50.395Z,25.50
2023-02-07T17:34:25.330Z,35.00
2023-02-07T17:36:51.016Z,37.25
2023-02-07T17:39:21.810Z,33.75
2023-02-07T17:41:52.739Z,32.50
2023-02-07T17:44:23.310Z,31.00
2023-02-07T17:46:55.369Z,27.00
2023-02-07T17:52:20.848Z,26.00
2023-02-07T17:54:51.782Z,26.75
2023-02-07T17:57:22.301Z,33.25
2023-02-07T17:59:53.493Z,28.25
2023-02-07T18:08:28.800Z,31.25
2023-02-07T18:11:06.237Z,27.00
2023-02-07T18:13:46.859Z,25.00
2023-02-07T18:16:23.794Z,34.25
2023-02-07T18:19:06.115Z,28.75
2023-02-07T18:21:39.898Z,30.00
2023-02-07T18:24:10.903Z,33.00
2023-02-07T18:26:44.979Z,49.25
2023-02-07T18:29:16.555Z,33.75
2023-02-07T18:31:47.287Z,30.00
2023-02-07T18:34:19.465Z,39.50
2023-02-07T18:36:50.442Z,27.75
2023-02-07T18:39:21.241Z,30.25
2023-02-07T18:41:54.661Z,32.25
2023-02-07T18:44:27.522Z,35.50
2023-02-07T18:46:59.005Z,18.75
2023-02-07T18:49:29.734Z,16.25
2023-02-07T18:52:04.136Z,24.25
2023-02-07T18:54:45.551Z,22.50
2023-02-07T19:00:16.434Z,29.00
2023-02-07T19:02:51.804Z,22.00
2023-02-07T19:05:26.440Z,24.25
2023-02-07T19:07:59.880Z,18.75
2023-02-07T19:10:30.328Z,25.75
2023-02-07T19:13:07.706Z,29.00
2023-02-07T19:15:41.395Z,16.00
2023-02-07T19:18:23.244Z,17.75
2023-02-07T19:20:55.759Z,26.25
2023-02-07T19:23:45.045Z,23.00
2023-02-07T19:26:18.380Z,22.25
2023-02-07T19:28:51.079Z,31.50
2023-02-07T19:31:28.663Z,30.75
2023-02-07T19:34:19.937Z,35.25
2023-02-07T19:37:01.970Z,26.50
2023-02-07T19:39:36.847Z,30.75
2023-02-07T19:42:16.843Z,29.50
2023-02-07T19:44:49.130Z,29.00
2023-02-07T19:47:24.967Z,39.25
2023-02-07T19:50:02.674Z,34.25
2023-02-07T22:41:31.478Z,46.00
2023-02-07T22:44:02.541Z,33.00
2023-02-07T22:46:34.159Z,37.25
2023-02-07T22:49:05.193Z,31.00
2023-02-07T22:51:56.875Z,26.75
2023-02-07T22:54:27.584Z,27.75
2023-02-07T22:56:58.058Z,26.50
2023-02-07T22:59:28.502Z,24.00
2023-02-07T23:01:58.836Z,29.00
2023-02-07T23:04:29.268Z,21.50
2023-02-07T23:06:59.717Z,27.00
2023-02-07T23:09:30.023Z,19.00
2023-02-07T23:12:02.057Z,20.00
2023-02-07T23:14:32.998Z,17.75
2023-02-07T23:17:04.026Z,30.00
2023-02-07T23:19:35.134Z,26.50
2023-02-07T23:22:05.469Z,27.50
2023-02-07T23:24:36.197Z,21.75
2023-02-07T23:27:09.695Z,25.50
2023-02-07T23:29:40.216Z,22.50
2023-02-07T23:32:10.559Z,24.00
2023-02-07T23:34:40.862Z,23.00
2023-02-07T23:37:11.333Z,26.50
2023-02-07T23:39:42.678Z,19.00
2023-02-07T23:42:13.073Z,28.50
2023-02-07T23:44:43.549Z,21.75
2023-02-07T23:47:14.528Z,18.00
2023-02-07T23:49:46.640Z,11.75
2023-02-07T23:52:18.498Z,20.75
2023-02-07T23:54:49.348Z,22.50
2023-02-07T23:57:19.679Z,20.75
2023-02-07T23:59:53.696Z,18.50
